Mountain Lake, MN (56159)

12:03 AM CST on February 10, 2016 (GMT -0600)
Windom Municipal | | Change Station
CLOSE
Current Station
Airport
Location: Windom,
Elevation: 1411 ft
Nearby Weather Stations

Elev 1411 ft 43.91 °N, 95.11 °W | Updated 9 minutes ago

Overcast
Overcast
14 °F
Feels Like 2 °F
N
9
Wind Variable Wind from NW

Today
High -- | Low -- °F
--% Chance of Precip.
Yesterday
High -- | Low -- °F
Precip. -- in
Pressure 30.12 in
Visibility 10.0 miles
Clouds Overcast 5000 ft
Windchill 2 °F
Dew Point 9 °F
Humidity 79%
Rainfall 0.00 in
Snow Depth Not available.
7:26 AM 5:42 PM
Waxing Crescent, 4% visible
METAR KMWM 100554Z AUTO 32008KT 10SM OVC050 M10/M13 A3012 RMK AO2
Pressure 30.12 in
Visibility 10.0 miles
Clouds Overcast 5000 ft
Windchill 2 °F
Dew Point 9 °F
Humidity 79%
Rainfall 0.00 in
Snow Depth Not available.
7:26 AM 5:42 PM
Waxing Crescent, 4% visible
METAR KMWM 100554Z AUTO 32008KT 10SM OVC050 M10/M13 A3012 RMK AO2

10-Day Weather Forecast

Almanac

Astronomy

Feb. 10, 2016 Rise Set
Actual Time
Civil Twilight
Nautical Twilight
Astronomical Twilight
Moon
Length of Visible Light
Length of Day
Tomorrow will be .
, % of the Moon is Illuminated

Today's Extremes

State Highs State Lows

Community

WunderPhotos

Upload Photos

1,891,824 photos uploaded!

WunderBlog® & News

Nearby

Air Quality

  Air Quality AQ Index Pollutant
Not available.

Snow Depth

Station Depth Elevation

Earthquake Activity

City Distance Mag. Time & Date
Minimum magnitude displayed is 2.5.

Coastal Water Temperatures

Place Temperature

Stations

Nearby Weather Stations

Station Location Temp. Windchill Dew Point Humidity Wind Precip. Elev Updated Type
                   

Watches & Warnings

There are currently no watches in effect.